Ana Sayfa
METAR-TAF:

METAR-TAF

Havaalanları :

Wahoo, Nebraska, Amerika Birleşik Devletleri

Enlem: 41-14-26N, Boylam: 096-35-40W, yükseklik: 373 m

Güncel hava durumu gözlemi

Rapor saat 16:35 UTC de 39 dakika önce yapıldı.
Rüzgar kuzeydoğudan 12 kt
Sıcaklık 20°C
Nem 73%
Basınç 1024 hPa
Görüş mesafesi: 16.1 km
Açık gökyüzü

METAR: KAHQ 191635Z AUTO 05012KT 10SM CLR 20/15 A3024 RMK AO2 T02000146

Saat: 12:14 (17:14 UTC)


TAF: eksik

4.000'den fazla havaalanı için hava durumu gözlemleri ve tahminleri (METAR ve TAF raporları).

Kullanılabilir istasyonlar harita üzerinde sarı ve kırmızı noktalarla gösterilir.

İstasyonun adını görmek için fareyi noktanın üzerinde gezdirin.

Sonrasında hava gözlem ve tahminlerini görmek için tıklayın.

Haritayı değiştirmek için: yaklaştırmak için siyah artı işaretli yeşil düğmeye ve uzaklaştırmak için de eksi işaretli düğmeye hızla tıklayın; bitişik haritalar için yeşil okları kullanın.


METAR-TAF: